Time;durP1;ratioP1;P1;durP2;ratioP2;P2;SDS_P1;SDS_P2;PMS_P1;PMS_P2;Temp;Humidity;BMP_temperature;BMP_pressure;BME280_temperature;BME280_humidity;BME280_pressure;Samples;Min_cycle;Max_cycle;Signal;HPM_P1;HPM_P2
2024/02/19 00:01:33;;;;;;;6.47;5.87;;;;;;;8.58;100.00;101585.00;6075620;29;20233;-69
2024/02/19 00:04:55;;;;;;;7.23;6.63;;;;;;;8.60;100.00;101578.56;6091425;29;20232;-69
2024/02/19 00:08:16;;;;;;;6.07;5.47;;;;;;;8.63;100.00;101582.88;6091752;29;20596;-69
2024/02/19 00:11:40;;;;;;;5.20;4.80;;;;;;;8.59;100.00;101586.75;6084896;29;20236;-69
2024/02/19 00:15:01;;;;;;;4.73;4.33;;;;;;;8.62;100.00;101582.00;6091082;29;20577;-69
2024/02/19 00:18:23;;;;;;;4.40;4.10;;;;;;;8.57;100.00;101584.16;6086817;29;20240;-68
2024/02/19 00:21:45;;;;;;;5.37;4.97;;;;;;;8.60;100.00;101588.44;6084349;29;20243;-69
2024/02/19 00:25:07;;;;;;;4.57;4.17;;;;;;;8.62;100.00;101594.59;6086521;29;20344;-69
2024/02/19 00:28:29;;;;;;;4.63;4.17;;;;;;;8.60;100.00;101596.50;6091698;29;20233;-69
2024/02/19 00:31:50;;;;;;;5.07;4.67;;;;;;;8.60;100.00;101599.19;6072947;29;20319;-69
2024/02/19 00:35:11;;;;;;;4.80;4.40;;;;;;;8.61;100.00;101600.94;6087792;29;20240;-68
2024/02/19 00:38:34;;;;;;;5.47;4.90;;;;;;;8.58;100.00;101614.56;6072309;29;20259;-69
2024/02/19 00:41:55;;;;;;;5.13;4.37;;;;;;;8.53;100.00;101597.91;6067645;29;20320;-69
2024/02/19 00:45:16;;;;;;;5.37;4.90;;;;;;;8.52;100.00;101605.13;6079326;29;20950;-69
2024/02/19 00:48:36;;;;;;;6.17;5.67;;;;;;;8.53;100.00;101606.00;6087485;29;20243;-69
2024/02/19 00:51:57;;;;;;;6.30;5.73;;;;;;;8.54;100.00;101611.25;6069264;29;20225;-69
2024/02/19 00:55:22;;;;;;;6.67;6.00;;;;;;;8.43;100.00;101629.03;6081235;29;20315;-69
2024/02/19 00:58:43;;;;;;;5.00;4.60;;;;;;;8.35;100.00;101624.19;6092055;29;20336;-69
2024/02/19 01:02:04;;;;;;;5.03;4.53;;;;;;;8.42;100.00;101632.72;6072074;29;20362;-69
2024/02/19 01:05:25;;;;;;;5.03;4.63;;;;;;;8.36;100.00;101622.38;6078518;29;20249;-68
2024/02/19 01:08:49;;;;;;;4.43;4.13;;;;;;;8.33;100.00;101622.59;6062697;29;20236;-69
2024/02/19 01:12:11;;;;;;;4.73;4.20;;;;;;;8.29;100.00;101621.94;6069170;29;20232;-70
2024/02/19 01:15:32;;;;;;;4.73;4.33;;;;;;;8.24;100.00;101629.41;6072419;29;20240;-70
2024/02/19 01:18:53;;;;;;;5.03;4.63;;;;;;;8.29;100.00;101627.31;6080605;29;20232;-70
2024/02/19 01:22:14;;;;;;;6.67;5.03;;;;;;;8.24;100.00;101631.25;6074106;29;20244;-70
2024/02/19 01:25:35;;;;;;;3.03;2.83;;;;;;;8.22;100.00;101641.22;6084912;29;20726;-70
2024/02/19 01:28:57;;;;;;;3.47;3.17;;;;;;;8.20;100.00;101646.69;6080684;29;20233;-69
2024/02/19 01:32:18;;;;;;;1.80;1.70;;;;;;;8.07;100.00;101653.84;6072720;29;20236;-69
2024/02/19 01:35:39;;;;;;;1.10;1.10;;;;;;;8.04;100.00;101660.28;6079003;29;20236;-69
2024/02/19 01:39:00;;;;;;;0.90;0.90;;;;;;;7.95;100.00;101673.41;6082117;29;20232;-69
2024/02/19 01:42:22;;;;;;;1.13;1.07;;;;;;;7.87;100.00;101678.44;6078611;29;20244;-69
2024/02/19 01:45:44;;;;;;;1.13;1.10;;;;;;;7.81;100.00;101678.84;6075372;29;20248;-69
2024/02/19 01:49:05;;;;;;;1.10;1.10;;;;;;;7.76;100.00;101680.97;6084594;29;20232;-69
2024/02/19 01:52:27;;;;;;;1.20;1.10;;;;;;;7.76;100.00;101681.81;6075262;29;20573;-69
2024/02/19 01:55:49;;;;;;;1.17;1.17;;;;;;;7.59;100.00;101674.00;6079588;29;20282;-69
2024/02/19 01:59:12;;;;;;;1.47;1.37;;;;;;;7.69;100.00;101685.88;6085718;29;20228;-69
2024/02/19 02:02:35;;;;;;;1.10;1.10;;;;;;;7.58;100.00;101687.50;6074482;29;20785;-70
2024/02/19 02:05:56;;;;;;;2.80;1.40;;;;;;;7.62;100.00;101695.25;6074235;29;20228;-68
2024/02/19 02:09:18;;;;;;;1.27;0.93;;;;;;;7.59;100.00;101694.59;6091250;29;20268;-69
2024/02/19 02:12:39;;;;;;;1.07;1.07;;;;;;;7.57;100.00;101710.75;6081051;29;20244;-70
2024/02/19 02:16:01;;;;;;;0.97;0.90;;;;;;;7.56;100.00;101711.75;6060254;29;20232;-70
2024/02/19 02:19:23;;;;;;;1.53;1.43;;;;;;;7.51;100.00;101713.00;6089318;29;20307;-70
2024/02/19 02:22:44;;;;;;;1.70;1.57;;;;;;;7.39;100.00;101719.97;6079508;29;20530;-69
2024/02/19 02:26:05;;;;;;;1.80;1.70;;;;;;;7.44;100.00;101720.56;6079578;29;20236;-69
2024/02/19 02:29:27;;;;;;;2.57;1.23;;;;;;;7.45;100.00;101733.00;6087584;29;20240;-69
2024/02/19 02:32:52;;;;;;;2.67;2.47;;;;;;;7.43;100.00;101732.22;6076613;29;20236;-69
2024/02/19 02:36:13;;;;;;;2.53;1.47;;;;;;;7.46;100.00;101728.50;6081229;29;20249;-69
2024/02/19 02:39:34;;;;;;;1.97;1.83;;;;;;;7.47;100.00;101728.41;6085931;29;20534;-68
2024/02/19 02:42:55;;;;;;;1.63;1.53;;;;;;;7.43;100.00;101732.22;6079032;29;20237;-68
2024/02/19 02:46:18;;;;;;;1.40;1.30;;;;;;;7.37;100.00;101737.09;6075678;29;20673;-68
2024/02/19 02:49:38;;;;;;;1.83;1.60;;;;;;;7.48;100.00;101742.69;6086425;29;20351;-68
2024/02/19 02:52:59;;;;;;;1.40;1.30;;;;;;;7.47;100.00;101741.81;6070803;29;20582;-69
2024/02/19 02:56:20;;;;;;;4.63;1.80;;;;;;;7.49;100.00;101745.25;6084548;29;20236;-69
2024/02/19 02:59:41;;;;;;;1.33;1.10;;;;;;;7.54;100.00;101750.34;6091110;29;20940;-69
2024/02/19 03:03:04;;;;;;;2.50;1.30;;;;;;;7.51;100.00;101745.19;6083186;29;20223;-69
2024/02/19 03:06:25;;;;;;;1.50;1.40;;;;;;;7.47;100.00;101746.34;6084725;29;20237;-69
2024/02/19 03:09:46;;;;;;;1.97;1.70;;;;;;;7.48;100.00;101750.72;6086865;29;20549;-68
2024/02/19 03:13:07;;;;;;;1.53;1.20;;;;;;;7.46;100.00;101758.00;6089081;29;20240;-69
2024/02/19 03:16:28;;;;;;;1.10;1.00;;;;;;;7.43;100.00;101764.41;6084545;29;20315;-67
2024/02/19 03:19:50;;;;;;;4.57;1.70;;;;;;;7.47;100.00;101770.47;6089641;29;20232;-69
2024/02/19 03:23:11;;;;;;;1.23;1.10;;;;;;;7.40;100.00;101780.72;6089800;29;20232;-70
2024/02/19 03:26:32;;;;;;;2.00;1.50;;;;;;;7.48;100.00;101781.09;6085294;29;20236;-69
2024/02/19 03:29:53;;;;;;;1.33;1.27;;;;;;;7.50;100.00;101791.75;6093999;29;20233;-70
2024/02/19 03:33:13;;;;;;;3.30;1.60;;;;;;;7.53;100.00;101803.13;6061187;29;20266;-69
2024/02/19 03:36:35;;;;;;;2.20;1.50;;;;;;;7.52;100.00;101805.91;6088792;29;20233;-69
2024/02/19 03:39:56;;;;;;;1.20;1.10;;;;;;;7.54;100.00;101820.97;6095061;29;20256;-68
2024/02/19 03:43:17;;;;;;;1.13;1.03;;;;;;;7.53;100.00;101808.50;6086151;29;20369;-69
2024/02/19 03:46:38;;;;;;;2.20;1.70;;;;;;;7.52;100.00;101814.84;6078056;29;20232;-69
2024/02/19 03:49:59;;;;;;;2.17;1.63;;;;;;;7.44;100.00;101833.22;6095897;29;20611;-69
2024/02/19 03:53:22;;;;;;;1.10;1.10;;;;;;;7.46;100.00;101835.81;6094140;29;20235;-68
2024/02/19 03:56:43;;;;;;;1.50;1.40;;;;;;;7.36;100.00;101846.25;6085301;29;20228;-68
2024/02/19 04:00:05;;;;;;;2.03;1.47;;;;;;;7.36;100.00;101859.66;6093573;29;20232;-69
2024/02/19 04:03:26;;;;;;;2.90;1.23;;;;;;;7.36;100.00;101858.78;6082289;29;20606;-68
2024/02/19 04:06:47;;;;;;;1.13;1.10;;;;;;;7.29;100.00;101871.69;6075766;29;20228;-69
2024/02/19 04:10:09;;;;;;;1.30;1.17;;;;;;;7.26;100.00;101878.09;6087025;29;20233;-67
2024/02/19 04:13:30;;;;;;;2.87;1.80;;;;;;;7.32;100.00;101879.56;6089553;29;20244;-70
2024/02/19 04:16:51;;;;;;;6.90;1.30;;;;;;;7.23;100.00;101890.81;6049372;29;20256;-68
2024/02/19 04:20:12;;;;;;;0.80;0.80;;;;;;;7.21;100.00;101904.31;6085754;29;20240;-68
2024/02/19 04:23:33;;;;;;;0.80;0.80;;;;;;;7.18;100.00;101909.84;6085941;29;20232;-69
2024/02/19 04:26:55;;;;;;;1.80;1.30;;;;;;;7.14;100.00;101902.94;6075065;29;20244;-68
2024/02/19 04:30:16;;;;;;;0.70;0.70;;;;;;;7.15;100.00;101901.13;6083267;29;20233;-68
2024/02/19 04:33:36;;;;;;;0.70;0.70;;;;;;;7.13;100.00;101913.75;6090143;29;20232;-69
2024/02/19 04:36:58;;;;;;;1.20;1.10;;;;;;;7.08;100.00;101921.19;6084860;29;20284;-69
2024/02/19 04:40:19;;;;;;;1.10;1.00;;;;;;;7.09;100.00;101923.78;6080974;29;20228;-68
2024/02/19 04:43:41;;;;;;;3.67;2.57;;;;;;;7.02;100.00;101925.09;6092885;29;20236;-68
2024/02/19 04:47:02;;;;;;;6.17;4.50;;;;;;;7.13;100.00;101937.91;6079812;29;20232;-69
2024/02/19 04:50:23;;;;;;;3.80;1.30;;;;;;;7.00;100.00;101927.00;6088014;29;20318;-69
2024/02/19 04:53:44;;;;;;;5.00;1.40;;;;;;;7.03;100.00;101924.13;6091083;29;20244;-67
2024/02/19 04:57:05;;;;;;;1.23;1.20;;;;;;;7.01;100.00;101925.16;6076301;29;20611;-69
2024/02/19 05:00:30;;;;;;;1.30;1.20;;;;;;;6.99;100.00;101937.81;6083912;29;20852;-68
2024/02/19 05:03:53;;;;;;;0.93;0.70;;;;;;;7.07;100.00;101939.09;6088345;29;20243;-68
2024/02/19 05:07:15;;;;;;;1.57;1.00;;;;;;;7.03;100.00;101944.75;6081436;29;20237;-69
2024/02/19 05:10:36;;;;;;;0.63;0.63;;;;;;;6.99;100.00;101953.88;6085781;29;20240;-69
2024/02/19 05:13:57;;;;;;;1.17;0.50;;;;;;;7.02;100.00;101940.31;6076076;29;20681;-68
2024/02/19 05:17:19;;;;;;;1.67;1.57;;;;;;;7.00;100.00;101944.91;6076660;29;20237;-68
2024/02/19 05:20:40;;;;;;;0.60;0.60;;;;;;;7.01;100.00;101943.94;6079696;29;20248;-69
2024/02/19 05:24:01;;;;;;;0.53;0.43;;;;;;;6.95;100.00;101950.53;6087824;29;20229;-69
2024/02/19 05:27:24;;;;;;;2.20;1.77;;;;;;;6.91;100.00;101959.69;6079118;29;20241;-69
2024/02/19 05:30:44;;;;;;;0.80;0.80;;;;;;;6.91;100.00;101953.44;6076253;29;20256;-68
2024/02/19 05:34:08;;;;;;;0.60;0.60;;;;;;;6.87;100.00;101966.16;6088119;29;20237;-69
2024/02/19 05:37:29;;;;;;;4.43;4.03;;;;;;;6.84;100.00;101966.31;6085095;29;20220;-69
2024/02/19 05:40:50;;;;;;;0.97;0.97;;;;;;;6.92;100.00;101973.97;6084618;29;20240;-69
2024/02/19 05:44:11;;;;;;;2.13;1.17;;;;;;;6.95;100.00;101971.09;6074281;29;20343;-69
2024/02/19 05:47:34;;;;;;;0.70;0.70;;;;;;;6.95;100.00;101974.66;6075412;29;20228;-69
2024/02/19 05:50:57;;;;;;;2.73;1.00;;;;;;;7.00;100.00;101985.13;6085015;29;20256;-68
2024/02/19 05:54:18;;;;;;;1.23;1.13;;;;;;;7.00;100.00;101982.44;6078448;29;20316;-69
2024/02/19 05:57:39;;;;;;;1.33;1.23;;;;;;;7.03;100.00;101984.97;6077314;29;20237;-69
2024/02/19 06:01:01;;;;;;;1.40;1.30;;;;;;;7.02;100.00;101996.63;6070473;29;20251;-68
2024/02/19 06:04:21;;;;;;;0.90;0.90;;;;;;;7.03;100.00;101995.69;6083454;29;20232;-69
2024/02/19 06:07:44;;;;;;;1.57;1.30;;;;;;;6.96;100.00;101994.28;6078686;29;20260;-69
2024/02/19 06:11:05;;;;;;;2.10;1.40;;;;;;;6.99;100.00;102007.50;6067960;29;20228;-69
2024/02/19 06:14:26;;;;;;;2.60;1.80;;;;;;;7.03;100.00;102001.03;6083227;29;20233;-66
2024/02/19 06:17:47;;;;;;;1.60;1.50;;;;;;;7.11;100.00;102006.84;6072540;29;20237;-67
2024/02/19 06:21:08;;;;;;;2.63;1.40;;;;;;;7.08;100.00;102015.03;6084089;29;20250;-66
2024/02/19 06:24:30;;;;;;;1.70;1.57;;;;;;;7.03;100.00;102025.16;6083224;29;20255;-66
2024/02/19 06:27:52;;;;;;;1.47;1.20;;;;;;;7.03;100.00;102030.53;6078366;29;20240;-67
2024/02/19 06:31:13;;;;;;;1.13;1.13;;;;;;;7.05;100.00;102034.81;6070886;29;20232;-67
2024/02/19 06:34:34;;;;;;;1.40;1.30;;;;;;;7.05;100.00;102048.22;6083663;29;20224;-67
2024/02/19 06:37:56;;;;;;;3.70;1.83;;;;;;;7.04;100.00;102046.53;6075359;29;20612;-66
2024/02/19 06:41:18;;;;;;;3.50;1.43;;;;;;;7.04;100.00;102049.19;6078892;29;20231;-67
2024/02/19 06:44:39;;;;;;;1.87;1.77;;;;;;;7.09;100.00;102049.78;6088237;29;20240;-67
2024/02/19 06:48:00;;;;;;;2.07;1.87;;;;;;;7.08;100.00;102044.53;6063118;29;20270;-68
2024/02/19 06:51:20;;;;;;;1.60;1.50;;;;;;;7.19;100.00;102048.34;6074187;29;20344;-66
2024/02/19 06:54:42;;;;;;;1.90;1.67;;;;;;;7.14;100.00;102047.72;6078120;29;20233;-66
2024/02/19 06:58:04;;;;;;;1.50;1.37;;;;;;;7.19;100.00;102060.88;6067225;29;20236;-67
2024/02/19 07:01:25;;;;;;;1.77;1.37;;;;;;;7.21;100.00;102072.41;6078274;29;20252;-67
2024/02/19 07:04:47;;;;;;;1.50;1.40;;;;;;;7.24;100.00;102069.53;6081504;29;20627;-68
2024/02/19 07:08:07;;;;;;;2.37;1.47;;;;;;;7.33;100.00;102070.81;6089848;29;20236;-69
2024/02/19 07:11:28;;;;;;;1.77;1.67;;;;;;;7.46;100.00;102061.16;6086877;29;20233;-70
2024/02/19 07:14:50;;;;;;;2.50;1.13;;;;;;;7.41;100.00;102066.75;6086456;29;20307;-69
2024/02/19 07:18:12;;;;;;;3.50;1.23;;;;;;;7.50;100.00;102076.13;6080227;29;20237;-69
2024/02/19 07:21:32;;;;;;;2.10;1.77;;;;;;;7.46;100.00;102075.44;6072308;29;20639;-67
2024/02/19 07:24:53;;;;;;;0.73;0.73;;;;;;;7.41;100.00;102066.75;6078406;29;20229;-67
2024/02/19 07:28:15;;;;;;;1.20;1.20;;;;;;;7.43;100.00;102080.97;6073254;29;20252;-69
2024/02/19 07:31:37;;;;;;;0.90;0.90;;;;;;;7.45;100.00;102079.06;6062725;29;20232;-66
2024/02/19 07:34:58;;;;;;;1.13;1.10;;;;;;;7.57;100.00;102090.91;6076777;29;20241;-66
2024/02/19 07:38:20;;;;;;;5.20;1.50;;;;;;;7.68;100.00;102085.78;6077725;29;20530;-67
2024/02/19 07:41:41;;;;;;;0.60;0.60;;;;;;;7.66;100.00;102091.25;6073998;29;20248;-68
2024/02/19 07:45:02;;;;;;;6.33;1.53;;;;;;;7.67;100.00;102094.81;6077462;29;20236;-66
2024/02/19 07:48:24;;;;;;;1.03;0.90;;;;;;;7.64;100.00;102097.66;6074377;29;20244;-68
2024/02/19 07:51:45;;;;;;;1.00;0.80;;;;;;;7.66;100.00;102103.78;6082085;29;20253;-66
2024/02/19 07:55:07;;;;;;;3.87;1.73;;;;;;;7.68;100.00;102108.13;6070328;29;20228;-67
2024/02/19 07:58:28;;;;;;;1.17;1.13;;;;;;;7.68;100.00;102096.53;6084948;29;20516;-67
2024/02/19 08:01:49;;;;;;;2.37;1.73;;;;;;;7.72;100.00;102100.75;6078913;29;20236;-68
2024/02/19 08:05:12;;;;;;;1.77;1.40;;;;;;;7.71;100.00;102105.28;6083142;29;20527;-67
2024/02/19 08:08:33;;;;;;;1.93;1.47;;;;;;;7.76;100.00;102105.03;6088425;29;20244;-68
2024/02/19 08:11:54;;;;;;;4.07;2.47;;;;;;;7.75;100.00;102104.16;6081107;29;20232;-68
2024/02/19 08:15:14;;;;;;;1.40;1.30;;;;;;;7.89;100.00;102114.94;6075588;29;20231;-70
2024/02/19 08:18:35;;;;;;;1.50;1.00;;;;;;;7.99;100.00;102112.59;6084808;29;20229;-66
2024/02/19 08:21:58;;;;;;;1.10;1.03;;;;;;;7.99;100.00;102113.47;6053985;29;20236;-66
2024/02/19 08:25:19;;;;;;;1.67;1.57;;;;;;;8.08;100.00;102122.81;6085297;29;20379;-65
2024/02/19 08:28:41;;;;;;;8.60;2.40;;;;;;;7.99;100.00;102124.19;6083340;29;20340;-66
2024/02/19 08:32:02;;;;;;;1.20;1.03;;;;;;;8.04;100.00;102116.75;6072881;29;20229;-68
2024/02/19 08:35:23;;;;;;;5.60;2.53;;;;;;;8.07;100.00;102121.94;6083313;29;20537;-68
2024/02/19 08:38:49;;;;;;;3.07;2.07;;;;;;;8.13;100.00;102117.16;6090672;29;20228;-66
2024/02/19 08:42:10;;;;;;;3.03;1.93;;;;;;;8.12;100.00;102123.47;6081634;29;20232;-68
2024/02/19 08:45:33;;;;;;;3.20;2.13;;;;;;;8.29;100.00;102118.88;6072403;29;20240;-68
2024/02/19 08:48:56;;;;;;;4.40;2.23;;;;;;;8.27;100.00;102115.44;6079129;29;20228;-66
2024/02/19 08:52:16;;;;;;;4.47;2.53;;;;;;;8.36;100.00;102117.56;6076962;29;20671;-67
2024/02/19 08:55:39;;;;;;;2.67;1.80;;;;;;;8.32;100.00;102117.84;6076814;29;20257;-69
2024/02/19 08:59:03;;;;;;;3.43;2.67;;;;;;;8.43;100.00;102126.09;6087735;29;20236;-67
2024/02/19 09:02:24;;;;;;;3.10;2.13;;;;;;;8.52;100.00;102126.44;6063476;29;20244;-67
2024/02/19 09:05:45;;;;;;;3.83;1.77;;;;;;;8.58;100.00;102128.75;6067977;29;20232;-67
2024/02/19 09:09:07;;;;;;;4.17;2.53;;;;;;;8.51;100.00;102113.09;6090293;29;20551;-68
2024/02/19 09:12:29;;;;;;;2.37;2.13;;;;;;;8.77;100.00;102118.63;6074101;29;20239;-66
2024/02/19 09:15:50;;;;;;;2.47;1.47;;;;;;;8.90;100.00;102107.97;6078902;29;20233;-69
2024/02/19 09:19:11;;;;;;;1.33;1.23;;;;;;;8.81;100.00;102113.91;6079627;29;20232;-68
2024/02/19 09:22:32;;;;;;;1.23;1.13;;;;;;;8.74;100.00;102105.34;6065489;29;20237;-67
2024/02/19 09:25:53;;;;;;;2.73;1.30;;;;;;;8.65;100.00;102107.75;6072312;29;20228;-66
2024/02/19 09:29:17;;;;;;;2.13;1.10;;;;;;;8.73;100.00;102100.94;6076154;29;20244;-68
2024/02/19 09:32:38;;;;;;;2.30;1.40;;;;;;;8.86;100.00;102109.13;6059850;29;20235;-65
2024/02/19 09:35:59;;;;;;;2.70;1.73;;;;;;;8.90;100.00;102099.91;6062664;29;20619;-67
2024/02/19 09:39:20;;;;;;;3.03;1.70;;;;;;;8.98;100.00;102111.03;6065538;29;20612;-66
2024/02/19 09:42:41;;;;;;;3.33;1.97;;;;;;;9.07;100.00;102112.28;6068157;29;20801;-68
2024/02/19 09:46:07;;;;;;;1.47;1.37;;;;;;;9.25;100.00;102113.81;6061595;29;20236;-67
2024/02/19 09:49:30;;;;;;;2.73;1.90;;;;;;;9.23;100.00;102111.22;6084147;28;20607;-67
2024/02/19 09:52:57;;;;;;;5.70;1.77;;;;;;;9.11;100.00;102124.59;6081147;29;20228;-68
2024/02/19 09:56:19;;;;;;;2.73;1.57;;;;;;;9.06;100.00;102124.00;6080341;29;20275;-69
2024/02/19 09:59:43;;;;;;;2.20;1.43;;;;;;;9.16;100.00;102125.16;6087412;29;20248;-68
2024/02/19 10:03:07;;;;;;;1.70;1.37;;;;;;;9.25;100.00;102122.75;6063412;29;20225;-68
2024/02/19 10:06:33;;;;;;;1.40;1.30;;;;;;;9.32;100.00;102129.50;6083957;29;20701;-67
2024/02/19 10:09:54;;;;;;;3.23;1.57;;;;;;;9.39;100.00;102125.44;6080065;29;20233;-68
2024/02/19 10:13:15;;;;;;;1.77;1.67;;;;;;;9.50;100.00;102125.63;6096444;29;20236;-68
2024/02/19 10:16:36;;;;;;;3.70;2.30;;;;;;;9.43;100.00;102134.16;6080805;29;20623;-68
2024/02/19 10:20:06;;;;;;;4.07;1.73;;;;;;;9.47;100.00;102136.56;6102186;29;20251;-67
2024/02/19 10:23:27;;;;;;;2.67;1.97;;;;;;;9.56;100.00;102127.91;6101057;29;20299;-67
2024/02/19 10:26:48;;;;;;;5.23;2.00;;;;;;;9.52;100.00;102129.06;6090136;29;21274;-69
2024/02/19 10:30:12;;;;;;;2.60;2.07;;;;;;;9.35;100.00;102137.34;6085134;29;20584;-67
2024/02/19 10:33:35;;;;;;;7.80;5.43;;;;;;;9.35;100.00;102131.09;6085338;29;20236;-68
2024/02/19 10:36:58;;;;;;;2.13;1.93;;;;;;;9.36;100.00;102116.69;6089098;29;20231;-67
2024/02/19 10:40:20;;;;;;;3.23;1.60;;;;;;;9.36;100.00;102135.53;6091108;29;20237;-67
2024/02/19 10:43:41;;;;;;;3.53;1.83;;;;;;;9.41;100.00;102138.78;6099728;29;20510;-67
2024/02/19 10:47:03;;;;;;;3.73;1.67;;;;;;;9.48;100.00;102132.06;6084022;29;20236;-69
2024/02/19 10:50:24;;;;;;;4.83;1.10;;;;;;;9.58;100.00;102138.56;6085521;29;20260;-68
2024/02/19 10:53:46;;;;;;;2.70;1.47;;;;;;;9.50;100.00;102136.38;6087758;29;20268;-68
2024/02/19 10:57:08;;;;;;;1.93;0.90;;;;;;;9.53;100.00;102141.56;6085904;29;20546;-68
2024/02/19 11:00:29;;;;;;;2.47;1.13;;;;;;;9.47;100.00;102136.56;6087972;29;20537;-68
2024/02/19 11:03:50;;;;;;;3.67;1.30;;;;;;;9.38;100.00;102121.03;6089550;29;20518;-68
2024/02/19 11:07:13;;;;;;;1.70;1.43;;;;;;;9.32;100.00;102134.88;6090269;29;20236;-68
2024/02/19 11:10:43;;;;;;;6.10;1.97;;;;;;;9.40;100.00;102123.59;6085774;29;20256;-67
2024/02/19 11:14:04;;;;;;;4.70;1.27;;;;;;;9.44;100.00;102122.44;6080709;29;20232;-67
2024/02/19 11:17:25;;;;;;;7.30;2.53;;;;;;;9.64;100.00;102120.19;6065928;29;20236;-69
2024/02/19 11:20:47;;;;;;;4.17;1.83;;;;;;;9.82;100.00;102122.66;6083655;29;20626;-66
2024/02/19 11:24:08;;;;;;;5.40;2.53;;;;;;;10.49;100.00;102119.91;6086253;29;20237;-69
2024/02/19 11:27:34;;;;;;;3.33;2.17;;;;;;;11.28;100.00;102118.69;6081376;29;20240;-67
2024/02/19 11:31:00;;;;;;;5.37;2.87;;;;;;;11.80;100.00;102113.13;6076050;29;20260;-68
2024/02/19 11:34:21;;;;;;;4.07;2.87;;;;;;;11.85;100.00;102110.03;6092116;29;20249;-67
2024/02/19 11:37:44;;;;;;;6.73;2.97;;;;;;;11.70;100.00;102100.41;6076913;29;20240;-66
2024/02/19 11:41:05;;;;;;;7.10;3.73;;;;;;;12.23;100.00;102099.06;6073883;29;20312;-66
2024/02/19 11:44:28;;;;;;;11.00;3.83;;;;;;;12.96;100.00;102080.66;6086720;29;20240;-67
2024/02/19 11:47:49;;;;;;;10.23;3.57;;;;;;;15.03;100.00;102063.97;6067800;29;20260;-67
2024/02/19 11:51:10;;;;;;;6.80;3.27;;;;;;;15.25;100.00;102047.44;6085338;29;21947;-68
2024/02/19 11:54:33;;;;;;;6.17;2.70;;;;;;;17.84;100.00;102047.94;6085440;29;20890;-67
2024/02/19 11:57:56;;;;;;;3.10;2.58;;;;;;;13.64;100.00;102048.91;6077079;29;20262;-66
2024/02/19 12:01:21;;;;;;;7.43;3.87;;;;;;;13.21;100.00;102047.97;6075077;29;20413;-67
2024/02/19 12:04:42;;;;;;;3.23;2.53;;;;;;;14.89;100.00;102032.59;6084510;29;20224;-68
2024/02/19 12:08:04;;;;;;;8.55;3.60;;;;;;;17.86;100.00;102021.38;6089230;29;20228;-66
2024/02/19 12:11:25;;;;;;;7.03;2.65;;;;;;;19.51;100.00;102013.84;6054168;29;20240;-67
2024/02/19 12:14:45;;;;;;;6.22;2.33;;;;;;;21.32;100.00;102006.91;6091571;29;20232;-66
2024/02/19 12:18:09;;;;;;;5.63;2.47;;;;;;;17.21;100.00;102006.97;6088403;29;20236;-66
2024/02/19 12:21:29;;;;;;;5.97;2.28;;;;;;;16.56;100.00;102029.72;6084293;29;20252;-67
2024/02/19 12:24:52;;;;;;;4.15;2.10;;;;;;;14.83;100.00;102018.72;6093863;29;20235;-67
2024/02/19 12:28:13;;;;;;;5.97;2.33;;;;;;;13.00;100.00;102026.16;6091321;29;20248;-68
2024/02/19 12:31:34;;;;;;;3.57;1.80;;;;;;;11.87;100.00;102010.81;6080172;29;20244;-66
2024/02/19 12:34:57;;;;;;;6.30;2.37;;;;;;;11.13;100.00;102029.88;6061732;29;20232;-68
2024/02/19 12:38:17;;;;;;;3.77;2.83;;;;;;;10.95;100.00;102025.84;6085849;29;20245;-69
2024/02/19 12:41:40;;;;;;;8.37;2.80;;;;;;;10.68;100.00;102012.47;6077187;29;20237;-66
2024/02/19 12:45:01;;;;;;;3.33;2.73;;;;;;;10.78;100.00;102034.25;6086817;29;20232;-67
2024/02/19 12:48:22;;;;;;;6.53;2.63;;;;;;;13.85;100.00;102022.69;6077124;29;20608;-66
2024/02/19 12:51:48;;;;;;;3.13;2.13;;;;;;;12.36;100.00;102016.03;6084453;29;20240;-67
2024/02/19 12:55:11;;;;;;;4.53;3.00;;;;;;;11.53;100.00;102007.09;6085908;29;20225;-67
2024/02/19 12:58:32;;;;;;;8.43;3.40;;;;;;;11.02;100.00;102017.16;6088868;29;20244;-66
2024/02/19 13:01:53;;;;;;;7.57;2.30;;;;;;;10.82;100.00;102027.69;6081282;29;20323;-66
2024/02/19 13:05:14;;;;;;;5.90;3.23;;;;;;;11.12;100.00;102015.53;6084824;29;20538;-66
2024/02/19 13:08:38;;;;;;;3.00;2.80;;;;;;;11.60;100.00;102027.25;6086668;29;20236;-67
2024/02/19 13:11:59;;;;;;;4.93;2.10;;;;;;;11.22;100.00;102026.53;6084052;29;20236;-70
2024/02/19 13:15:20;;;;;;;4.00;2.70;;;;;;;10.98;100.00;102031.88;6079908;29;20240;-68
2024/02/19 13:18:41;;;;;;;5.00;2.67;;;;;;;10.98;100.00;102031.88;6092170;29;20240;-66
2024/02/19 13:22:02;;;;;;;4.67;2.63;;;;;;;11.24;100.00;102025.41;6085309;29;20622;-66
2024/02/19 13:25:24;;;;;;;7.10;2.20;;;;;;;11.33;100.00;102026.59;6081233;29;20244;-67
2024/02/19 13:28:45;;;;;;;4.57;2.50;;;;;;;11.11;100.00;102030.00;6093364;29;20231;-68
2024/02/19 13:32:08;;;;;;;6.23;3.30;;;;;;;10.92;100.00;102028.75;6085210;29;20236;-68
2024/02/19 13:35:29;;;;;;;8.40;4.10;;;;;;;10.70;100.00;102023.16;6079495;29;20583;-66
2024/02/19 13:38:50;;;;;;;6.27;2.27;;;;;;;10.57;100.00;102027.69;6095613;29;20239;-66
2024/02/19 13:42:13;;;;;;;4.63;2.57;;;;;;;10.67;100.00;102021.53;6108082;23;21175;-66
2024/02/19 13:45:53;;;;;;;8.17;2.77;;;;;;;10.64;100.00;102016.34;6056207;29;20244;-68
2024/02/19 13:49:14;;;;;;;6.30;2.87;;;;;;;10.62;100.00;102017.44;6060425;29;21970;-65
2024/02/19 13:52:36;;;;;;;5.33;3.03;;;;;;;10.61;100.00;102024.66;6055466;29;20261;-66
2024/02/19 13:55:58;;;;;;;5.80;2.93;;;;;;;10.70;100.00;102012.38;6056443;29;20233;-66
2024/02/19 13:59:20;;;;;;;3.67;2.43;;;;;;;11.39;100.00;102009.09;6069195;29;20257;-67
2024/02/19 14:02:41;;;;;;;9.47;3.47;;;;;;;12.87;100.00;102006.47;6042345;29;20237;-68
2024/02/19 14:06:03;;;;;;;10.33;3.63;;;;;;;12.34;100.00;102008.03;6051087;29;20264;-67
2024/02/19 14:09:24;;;;;;;4.17;2.50;;;;;;;11.49;100.00;102000.19;6067938;29;20757;-66
2024/02/19 14:12:46;;;;;;;5.37;2.83;;;;;;;11.61;100.00;101999.28;6058784;29;20241;-66
2024/02/19 14:16:10;;;;;;;6.87;2.40;;;;;;;11.83;100.00;101993.97;6062150;29;20224;-66
2024/02/19 14:19:31;;;;;;;4.77;2.83;;;;;;;11.64;100.00;101993.63;6065427;29;20264;-67
2024/02/19 14:22:52;;;;;;;5.40;2.80;;;;;;;10.91;100.00;101991.97;6063197;29;20328;-65
2024/02/19 14:26:13;;;;;;;6.03;2.87;;;;;;;10.72;100.00;101988.84;6062793;29;20237;-67
2024/02/19 14:29:34;;;;;;;9.43;3.87;;;;;;;11.00;100.00;101988.56;6064130;29;20604;-68
2024/02/19 14:32:59;;;;;;;5.67;2.07;;;;;;;11.65;100.00;101976.44;6045013;29;20518;-70
2024/02/19 14:36:20;;;;;;;3.33;1.93;;;;;;;14.72;100.00;101968.06;6045218;29;20553;-67
2024/02/19 14:39:41;;;;;;;1.40;1.20;;;;;;;16.61;100.00;101953.91;6047705;29;20237;-68
2024/02/19 14:43:02;;;;;;;2.27;1.90;;;;;;;12.78;100.00;101955.81;6047904;29;20241;-67
2024/02/19 14:46:23;;;;;;;4.73;2.07;;;;;;;12.09;100.00;101967.66;6052590;29;20265;-65
2024/02/19 14:49:45;;;;;;;5.93;1.70;;;;;;;11.84;100.00;101967.84;6055971;29;20233;-69
2024/02/19 14:53:07;;;;;;;3.00;1.77;;;;;;;11.45;100.00;101971.69;6054120;29;20686;-68
2024/02/19 14:56:28;;;;;;;3.07;1.30;;;;;;;11.58;100.00;101964.38;6060115;29;20532;-68
2024/02/19 14:59:50;;;;;;;1.57;1.17;;;;;;;11.32;100.00;101970.00;6063425;29;20237;-66
2024/02/19 15:03:11;;;;;;;3.27;2.20;;;;;;;11.02;100.00;101967.72;6060684;29;20245;-66
2024/02/19 15:06:33;;;;;;;5.20;2.20;;;;;;;10.88;100.00;101979.53;6064193;29;20240;-69
2024/02/19 15:09:54;;;;;;;2.20;1.13;;;;;;;10.97;100.00;101984.25;6070144;29;20241;-69
2024/02/19 15:13:18;;;;;;;2.13;1.60;;;;;;;10.75;100.00;101976.00;6064627;29;20241;-69
2024/02/19 15:16:38;;;;;;;4.20;1.67;;;;;;;10.74;100.00;101982.38;6062899;29;20320;-67
2024/02/19 15:20:00;;;;;;;5.00;2.47;;;;;;;10.65;100.00;101982.16;6064777;29;20335;-68
2024/02/19 15:23:22;;;;;;;4.90;2.67;;;;;;;10.57;100.00;101973.75;6069066;29;20256;-68
2024/02/19 15:26:43;;;;;;;3.43;2.37;;;;;;;10.58;100.00;101997.91;6054770;29;20260;-67
2024/02/19 15:30:06;;;;;;;3.60;2.30;;;;;;;10.45;100.00;101991.69;6072866;29;20825;-66
2024/02/19 15:33:29;;;;;;;5.40;2.70;;;;;;;10.39;100.00;101992.09;6045184;29;20241;-66